Time,TemperatureF,DewpointF,PressureIn,WindDirection,WindDirectionDegrees,WindSpeedMPH,WindSpeedGustMPH,Humidity,HourlyPrecipIn,Conditions,Clouds,dailyrainin,SoftwareType,DateUTC
2017-04-29 00:01:00,47.8,41.7,29.91,North,0,0.0,0.0,79,0.00,,SKC,0.00,VWS V15.00,2017-04-29 07:01:00,
2017-04-29 00:06:00,47.8,42.0,29.91,North,0,0.0,0.0,80,0.00,,SKC,0.00,VWS V15.00,2017-04-29 07:06:00,
2017-04-29 00:11:00,47.7,41.8,29.91,North,0,0.0,0.0,80,0.00,,SKC,0.00,VWS V15.00,2017-04-29 07:11:00,
2017-04-29 00:16:00,47.5,41.6,29.91,North,0,0.0,0.0,80,0.00,,SKC,0.00,VWS V15.00,2017-04-29 07:16:00,
2017-04-29 00:21:00,47.5,41.6,29.91,North,0,0.0,0.0,80,0.00,,SKC,0.00,VWS V15.00,2017-04-29 07:21:00,
2017-04-29 00:26:00,47.3,41.5,29.91,North,0,0.0,0.0,80,0.00,,SKC,0.00,VWS V15.00,2017-04-29 07:26:00,
2017-04-29 00:31:00,47.1,41.3,29.91,North,0,0.0,0.0,80,0.00,,SKC,0.00,VWS V15.00,2017-04-29 07:31:00,
2017-04-29 00:36:00,47.1,41.3,29.91,North,0,0.0,0.0,80,0.00,,SKC,0.00,VWS V15.00,2017-04-29 07:36:00,
2017-04-29 00:41:00,46.9,41.4,29.91,North,0,0.0,0.0,81,0.00,,SKC,0.00,VWS V15.00,2017-04-29 07:41:00,
2017-04-29 00:46:00,46.8,41.2,29.91,North,0,0.0,0.0,81,0.00,,SKC,0.00,VWS V15.00,2017-04-29 07:46:00,
2017-04-29 00:51:00,46.8,41.2,29.91,North,0,0.0,0.0,81,0.00,,SKC,0.00,VWS V15.00,2017-04-29 07:51:00,
2017-04-29 00:57:00,46.8,41.2,29.91,North,0,0.0,0.0,81,0.00,,SKC,0.00,VWS V15.00,2017-04-29 07:57:00,
2017-04-29 01:02:00,46.4,40.9,29.91,North,0,0.0,0.0,81,0.00,,SKC,0.00,VWS V15.00,2017-04-29 08:02:00,
2017-04-29 01:07:00,46.4,40.9,29.91,North,0,0.0,0.0,81,0.00,,SKC,0.00,VWS V15.00,2017-04-29 08:07:00,
2017-04-29 01:12:00,45.9,40.7,29.91,North,0,0.0,0.0,82,0.00,,SKC,0.00,VWS V15.00,2017-04-29 08:12:00,
2017-04-29 01:17:00,45.9,40.7,29.91,North,0,0.0,0.0,82,0.00,,SKC,0.00,VWS V15.00,2017-04-29 08:17:00,
2017-04-29 01:22:00,45.7,40.8,29.91,North,0,0.0,0.0,83,0.00,,SKC,0.00,VWS V15.00,2017-04-29 08:22:00,
2017-04-29 01:27:00,45.3,40.5,29.91,North,0,0.0,0.0,83,0.00,,SKC,0.00,VWS V15.00,2017-04-29 08:27:00,
2017-04-29 01:32:00,45.3,40.5,29.91,North,0,0.0,0.0,83,0.00,,SKC,0.00,VWS V15.00,2017-04-29 08:32:00,
2017-04-29 01:37:00,45.1,40.3,29.91,North,0,0.0,0.0,83,0.00,,SKC,0.00,VWS V15.00,2017-04-29 08:37:00,
2017-04-29 01:42:00,45.0,40.1,29.91,North,0,0.0,0.0,83,0.00,,SKC,0.00,VWS V15.00,2017-04-29 08:42:00,
2017-04-29 01:47:00,44.8,39.9,29.91,North,0,0.0,0.0,83,0.00,,SKC,1.58,VWS V15.00,2017-04-29 08:47:00,
2017-04-29 01:52:00,45.0,40.4,29.91,North,0,0.0,0.0,84,0.00,,SKC,0.00,VWS V15.00,2017-04-29 08:52:00,
2017-04-29 01:57:00,45.0,40.4,29.91,North,0,0.0,0.0,84,0.00,,SKC,0.00,VWS V15.00,2017-04-29 08:57:00,
2017-04-29 02:02:00,44.8,40.2,29.91,North,0,0.0,0.0,84,0.00,,SKC,0.00,VWS V15.00,2017-04-29 09:02:00,
2017-04-29 02:07:00,44.6,40.1,29.91,North,0,0.0,0.0,84,0.00,,SKC,0.00,VWS V15.00,2017-04-29 09:07:00,
2017-04-29 02:12:00,44.4,39.9,29.91,North,0,0.0,0.0,84,0.00,,SKC,0.00,VWS V15.00,2017-04-29 09:12:00,
2017-04-29 02:17:00,44.4,39.9,29.91,North,0,0.0,0.0,84,0.00,,SKC,0.00,VWS V15.00,2017-04-29 09:17:00,
2017-04-29 02:23:00,44.4,39.9,29.91,North,0,0.0,0.0,84,0.00,,SKC,0.00,VWS V15.00,2017-04-29 09:23:00,
2017-04-29 02:25:00,44.4,39.9,29.91,North,0,0.0,0.0,84,0.00,,SKC,0.00,VWS V15.00,2017-04-29 09:25:00,
2017-04-29 02:30:00,44.1,39.8,29.91,North,0,0.0,0.0,85,0.00,,SKC,0.00,VWS V15.00,2017-04-29 09:30:00,
2017-04-29 02:35:00,43.7,39.5,29.91,North,0,0.0,0.0,85,0.00,,SKC,0.00,VWS V15.00,2017-04-29 09:35:00,
2017-04-29 02:40:00,44.1,40.2,29.91,North,0,0.0,0.0,86,0.00,,SKC,0.00,VWS V15.00,2017-04-29 09:40:00,
2017-04-29 02:45:00,44.1,40.2,29.91,North,0,0.0,0.0,86,0.00,,SKC,0.00,VWS V15.00,2017-04-29 09:45:00,
2017-04-29 02:50:00,44.1,40.2,29.91,North,0,0.0,0.0,86,0.00,,SKC,0.00,VWS V15.00,2017-04-29 09:50:00,
2017-04-29 02:55:00,44.1,40.2,29.91,North,0,0.0,0.0,86,0.00,,SKC,0.00,VWS V15.00,2017-04-29 09:55:00,
2017-04-29 03:00:00,44.1,40.2,29.91,North,0,0.0,0.0,86,0.00,,SKC,0.00,VWS V15.00,2017-04-29 10:00:00,
2017-04-29 03:05:00,43.0,38.8,29.91,North,0,0.0,0.0,85,0.00,,SKC,0.00,VWS V15.00,2017-04-29 10:05:00,
2017-04-29 03:10:00,43.0,39.1,29.91,North,0,0.0,0.0,86,0.00,,SKC,0.00,VWS V15.00,2017-04-29 10:10:00,
2017-04-29 03:15:00,42.8,38.6,29.91,North,0,0.0,0.0,85,0.00,,SKC,0.00,VWS V15.00,2017-04-29 10:15:00,
2017-04-29 03:20:00,42.8,38.6,29.91,North,0,0.0,0.0,85,0.00,,SKC,0.00,VWS V15.00,2017-04-29 10:20:00,
2017-04-29 03:25:00,42.8,38.6,29.91,North,0,0.0,0.0,85,0.00,,SKC,0.00,VWS V15.00,2017-04-29 10:25:00,
2017-04-29 03:30:00,42.6,38.7,29.91,North,0,0.0,0.0,86,0.00,,SKC,0.00,VWS V15.00,2017-04-29 10:30:00,
2017-04-29 03:35:00,42.3,38.4,29.91,North,0,0.0,0.0,86,0.00,,SKC,0.00,VWS V15.00,2017-04-29 10:35:00,
2017-04-29 03:40:00,42.4,38.6,29.91,North,0,0.0,0.0,86,0.00,,SKC,0.00,VWS V15.00,2017-04-29 10:40:00,
2017-04-29 03:45:00,42.1,38.2,29.91,North,0,0.0,0.0,86,0.00,,SKC,0.00,VWS V15.00,2017-04-29 10:45:00,
2017-04-29 03:50:00,41.9,38.0,29.91,North,0,0.0,0.0,86,0.00,,SKC,0.00,VWS V15.00,2017-04-29 10:50:00,
2017-04-29 03:55:00,41.9,38.0,29.91,North,0,0.0,0.0,86,0.00,,SKC,0.00,VWS V15.00,2017-04-29 10:55:00,
2017-04-29 04:00:00,41.9,38.0,29.91,North,0,0.0,0.0,86,0.00,,SKC,0.00,VWS V15.00,2017-04-29 11:00:00,
2017-04-29 04:05:00,41.7,37.8,29.91,North,0,0.0,0.0,86,0.00,,SKC,0.00,VWS V15.00,2017-04-29 11:05:00,
2017-04-29 04:10:00,41.7,37.8,29.91,North,0,0.0,0.0,86,0.00,,SKC,0.00,VWS V15.00,2017-04-29 11:10:00,
2017-04-29 04:15:00,41.7,38.1,29.91,North,0,0.0,0.0,87,0.00,,SKC,0.00,VWS V15.00,2017-04-29 11:15:00,
2017-04-29 04:20:00,41.9,38.3,29.91,North,0,0.0,0.0,87,0.00,,SKC,0.00,VWS V15.00,2017-04-29 11:20:00,
2017-04-29 04:25:00,41.7,38.1,29.91,North,0,0.0,0.0,87,0.00,,SKC,0.00,VWS V15.00,2017-04-29 11:25:00,
2017-04-29 04:30:00,41.7,38.1,29.91,North,0,0.0,0.0,87,0.00,,SKC,0.00,VWS V15.00,2017-04-29 11:30:00,
2017-04-29 04:35:00,41.9,38.3,29.91,North,0,0.0,0.0,87,0.00,,SKC,0.00,VWS V15.00,2017-04-29 11:35:00,
2017-04-29 04:37:00,41.9,38.3,29.91,North,0,0.0,0.0,87,0.00,,SKC,0.00,VWS V15.00,2017-04-29 11:37:00,
2017-04-29 04:42:00,41.5,38.0,29.91,North,0,0.0,0.0,87,0.00,,SKC,0.00,VWS V15.00,2017-04-29 11:42:00,
2017-04-29 04:47:00,41.5,38.0,29.91,North,0,0.0,0.0,87,0.00,,SKC,0.00,VWS V15.00,2017-04-29 11:47:00,
2017-04-29 04:52:00,41.2,37.6,29.91,North,0,0.0,0.0,87,0.00,,SKC,0.00,VWS V15.00,2017-04-29 11:52:00,
2017-04-29 04:57:00,41.5,38.0,29.91,North,0,0.0,0.0,87,0.00,,SKC,0.00,VWS V15.00,2017-04-29 11:57:00,
2017-04-29 05:02:00,41.7,38.4,29.88,North,0,0.0,0.0,88,0.00,,SKC,0.00,VWS V15.00,2017-04-29 12:02:00,
2017-04-29 05:04:00,41.7,38.4,29.88,North,0,0.0,0.0,88,0.00,,SKC,0.00,VWS V15.00,2017-04-29 12:04:00,
2017-04-29 05:09:00,41.7,38.4,29.88,North,0,0.0,0.0,88,0.00,,SKC,0.00,VWS V15.00,2017-04-29 12:09:00,
2017-04-29 05:14:00,41.4,37.8,29.88,North,0,0.0,0.0,87,0.00,,SKC,0.00,VWS V15.00,2017-04-29 12:14:00,
2017-04-29 05:19:00,41.5,38.3,29.88,North,0,0.0,0.0,88,0.00,,SKC,0.00,VWS V15.00,2017-04-29 12:19:00,
2017-04-29 05:24:00,41.4,38.1,29.88,North,0,0.0,0.0,88,0.00,,SKC,0.00,VWS V15.00,2017-04-29 12:24:00,
2017-04-29 05:29:00,41.4,38.1,29.88,North,0,0.0,0.0,88,0.00,,SKC,0.00,VWS V15.00,2017-04-29 12:29:00,
2017-04-29 05:34:00,41.7,38.4,29.88,North,0,0.0,0.0,88,0.00,,SKC,0.00,VWS V15.00,2017-04-29 12:34:00,
2017-04-29 05:39:00,41.7,38.4,29.88,North,0,0.0,0.0,88,0.00,,SKC,0.00,VWS V15.00,2017-04-29 12:39:00,
2017-04-29 05:44:00,41.0,37.4,29.88,North,0,0.0,0.0,87,0.00,,SKC,0.00,VWS V15.00,2017-04-29 12:44:00,
2017-04-29 05:49:00,41.0,37.7,29.88,North,0,0.0,0.0,88,0.00,,SKC,0.00,VWS V15.00,2017-04-29 12:49:00,
2017-04-29 05:55:00,41.2,37.9,29.88,North,0,0.0,0.0,88,0.00,,SKC,0.00,VWS V15.00,2017-04-29 12:55:00,
2017-04-29 06:00:00,41.2,38.2,29.88,North,0,0.0,0.0,89,0.00,,SKC,0.00,VWS V15.00,2017-04-29 13:00:00,
2017-04-29 06:05:00,41.2,37.9,29.88,North,0,0.0,0.0,88,0.00,,SKC,0.00,VWS V15.00,2017-04-29 13:05:00,
2017-04-29 06:10:00,41.5,38.5,29.88,North,0,0.0,0.0,89,0.00,,SKC,0.00,VWS V15.00,2017-04-29 13:10:00,
2017-04-29 06:15:00,41.5,38.5,29.88,North,0,0.0,0.0,89,0.00,,SKC,0.00,VWS V15.00,2017-04-29 13:15:00,
2017-04-29 06:20:00,41.5,38.5,29.88,North,0,0.0,0.0,89,0.00,,SKC,0.00,VWS V15.00,2017-04-29 13:20:00,
2017-04-29 06:25:00,41.5,38.5,29.88,North,0,0.0,0.0,89,0.00,,SKC,0.00,VWS V15.00,2017-04-29 13:25:00,
2017-04-29 06:30:00,41.9,38.9,29.88,North,0,0.0,0.0,89,0.00,,SKC,0.00,VWS V15.00,2017-04-29 13:30:00,
2017-04-29 06:35:00,41.7,38.7,29.88,North,0,0.0,0.0,89,0.00,,SKC,0.00,VWS V15.00,2017-04-29 13:35:00,
2017-04-29 06:40:00,41.9,38.9,29.88,North,0,0.0,0.0,89,0.00,,SKC,0.00,VWS V15.00,2017-04-29 13:40:00,
2017-04-29 06:45:00,42.4,40.0,29.88,North,0,0.0,0.0,91,0.00,,SKC,0.00,VWS V15.00,2017-04-29 13:45:00,
2017-04-29 06:50:00,42.4,39.7,29.88,North,0,0.0,0.0,90,0.00,,SKC,0.00,VWS V15.00,2017-04-29 13:50:00,
2017-04-29 06:55:00,42.4,39.7,29.88,North,0,0.0,0.0,90,0.00,,SKC,0.00,VWS V15.00,2017-04-29 13:55:00,
2017-04-29 07:00:00,42.8,40.1,29.88,North,0,0.0,0.0,90,0.00,,SKC,0.00,VWS V15.00,2017-04-29 14:00:00,
2017-04-29 07:05:00,43.3,40.6,29.88,North,0,0.0,0.0,90,0.00,,SKC,0.00,VWS V15.00,2017-04-29 14:05:00,
2017-04-29 07:10:00,43.9,41.4,29.88,North,0,0.0,0.0,91,0.00,,SKC,0.00,VWS V15.00,2017-04-29 14:10:00,
2017-04-29 07:15:00,43.7,41.2,29.88,North,0,0.0,0.0,91,0.00,,SKC,0.00,VWS V15.00,2017-04-29 14:15:00,
2017-04-29 07:20:00,43.7,41.0,29.88,North,0,0.0,0.0,90,0.00,,SKC,0.00,VWS V15.00,2017-04-29 14:20:00,
2017-04-29 07:25:00,43.9,41.1,29.88,North,0,0.0,0.0,90,0.00,,SKC,0.00,VWS V15.00,2017-04-29 14:25:00,
2017-04-29 07:30:00,44.1,41.3,29.88,North,0,0.0,0.0,90,0.00,,SKC,0.00,VWS V15.00,2017-04-29 14:30:00,
2017-04-29 07:35:00,44.8,42.3,29.88,North,0,0.0,0.0,91,0.00,,SKC,0.00,VWS V15.00,2017-04-29 14:35:00,
2017-04-29 07:40:00,44.8,42.3,29.88,North,0,0.0,0.0,91,0.00,,SKC,0.00,VWS V15.00,2017-04-29 14:40:00,
2017-04-29 07:45:00,45.0,42.5,29.88,North,0,0.0,0.0,91,0.00,,SKC,0.00,VWS V15.00,2017-04-29 14:45:00,
2017-04-29 07:46:00,45.1,42.7,29.88,North,0,0.0,0.0,91,0.00,,SKC,0.00,VWS V15.00,2017-04-29 14:46:00,
2017-04-29 07:51:00,45.7,43.2,29.88,North,0,0.0,0.0,91,0.00,,SKC,0.00,VWS V15.00,2017-04-29 14:51:00,
2017-04-29 07:56:00,46.0,43.6,29.88,North,0,0.0,0.0,91,0.00,,SKC,0.00,VWS V15.00,2017-04-29 14:56:00,
2017-04-29 08:01:00,46.2,43.7,29.88,North,0,0.0,0.0,91,0.00,,SKC,0.00,VWS V15.00,2017-04-29 15:01:00,
2017-04-29 08:06:00,46.6,43.8,29.88,North,0,0.0,0.0,90,0.00,,SKC,0.00,VWS V15.00,2017-04-29 15:06:00,
2017-04-29 08:11:00,46.6,43.8,29.88,North,0,0.0,0.0,90,0.00,,SKC,0.00,VWS V15.00,2017-04-29 15:11:00,
2017-04-29 08:16:00,46.8,44.0,29.88,North,0,0.0,0.0,90,0.00,,SKC,0.00,VWS V15.00,2017-04-29 15:16:00,
2017-04-29 08:21:00,46.9,44.2,29.88,North,0,0.0,0.0,90,0.00,,SKC,0.00,VWS V15.00,2017-04-29 15:21:00,
2017-04-29 08:26:00,47.1,44.3,29.88,North,0,0.0,0.0,90,0.00,,SKC,0.00,VWS V15.00,2017-04-29 15:26:00,
2017-04-29 08:31:00,47.3,44.2,29.88,North,0,0.0,0.0,89,0.00,,SKC,0.00,VWS V15.00,2017-04-29 15:31:00,
2017-04-29 08:36:00,47.3,44.2,29.88,North,0,0.0,0.0,89,0.00,,SKC,0.00,VWS V15.00,2017-04-29 15:36:00,
2017-04-29 08:41:00,47.3,44.2,29.88,North,0,0.0,0.0,89,0.00,,SKC,0.00,VWS V15.00,2017-04-29 15:41:00,
2017-04-29 08:46:00,47.3,43.9,29.88,North,0,0.0,0.0,88,0.00,,SKC,0.00,VWS V15.00,2017-04-29 15:46:00,
2017-04-29 08:51:00,47.3,43.9,29.88,North,0,0.0,0.0,88,0.00,,SKC,0.00,VWS V15.00,2017-04-29 15:51:00,
2017-04-29 08:56:00,47.5,44.1,29.88,North,0,0.0,0.0,88,0.00,,SKC,0.00,VWS V15.00,2017-04-29 15:56:00,
2017-04-29 09:01:00,47.7,44.3,29.88,North,0,0.0,0.0,88,0.00,,SKC,0.00,VWS V15.00,2017-04-29 16:01:00,
2017-04-29 09:06:00,47.5,44.1,29.88,North,0,0.0,0.0,88,0.00,,SKC,0.00,VWS V15.00,2017-04-29 16:06:00,
2017-04-29 09:11:00,47.7,44.3,29.88,North,0,0.0,0.0,88,0.00,,SKC,0.00,VWS V15.00,2017-04-29 16:11:00,
2017-04-29 09:13:00,47.7,44.3,29.88,North,0,0.0,0.0,88,0.00,,SKC,0.00,VWS V15.00,2017-04-29 16:13:00,
2017-04-29 09:18:00,47.8,44.5,29.88,North,0,0.0,0.0,88,0.00,,SKC,0.00,VWS V15.00,2017-04-29 16:18:00,
2017-04-29 09:23:00,47.7,44.3,29.88,North,0,0.0,0.0,88,0.00,,SKC,0.00,VWS V15.00,2017-04-29 16:23:00,
2017-04-29 09:28:00,47.8,44.5,29.88,North,0,0.0,0.0,88,0.00,,SKC,0.00,VWS V15.00,2017-04-29 16:28:00,
2017-04-29 09:33:00,47.8,44.2,29.88,North,0,0.0,0.0,87,0.00,,SKC,0.00,VWS V15.00,2017-04-29 16:33:00,
2017-04-29 09:38:00,48.0,44.3,29.88,North,0,0.0,0.0,87,0.00,,SKC,0.00,VWS V15.00,2017-04-29 16:38:00,
2017-04-29 09:43:00,48.0,44.3,29.88,North,0,0.0,0.0,87,0.00,,SKC,0.00,VWS V15.00,2017-04-29 16:43:00,
2017-04-29 09:48:00,48.2,44.2,29.88,North,0,0.0,0.0,86,0.00,,SKC,0.00,VWS V15.00,2017-04-29 16:48:00,
2017-04-29 09:53:00,48.4,44.4,29.88,North,0,0.0,0.0,86,0.00,,SKC,0.00,VWS V15.00,2017-04-29 16:53:00,
2017-04-29 09:58:00,48.4,44.4,29.88,North,0,0.0,0.0,86,0.00,,SKC,0.00,VWS V15.00,2017-04-29 16:58:00,
2017-04-29 10:03:00,48.6,44.6,29.85,North,0,0.0,0.0,86,0.00,,SKC,0.00,VWS V15.00,2017-04-29 17:03:00,
2017-04-29 10:08:00,48.6,44.6,29.85,North,0,0.0,0.0,86,0.00,,SKC,0.00,VWS V15.00,2017-04-29 17:08:00,
2017-04-29 10:13:00,48.6,44.6,29.85,North,0,0.0,0.0,86,0.00,,SKC,0.00,VWS V15.00,2017-04-29 17:13:00,
2017-04-29 10:18:00,48.7,44.8,29.85,North,0,0.0,0.0,86,0.00,,SKC,0.00,VWS V15.00,2017-04-29 17:18:00,
2017-04-29 10:23:00,48.7,44.4,29.85,North,0,0.0,0.0,85,0.00,,SKC,0.00,VWS V15.00,2017-04-29 17:23:00,
2017-04-29 10:28:00,48.7,44.1,29.85,North,0,0.0,0.0,84,0.00,,SKC,0.00,VWS V15.00,2017-04-29 17:28:00,
2017-04-29 10:33:00,48.9,44.3,29.85,North,0,0.0,0.0,84,0.00,,SKC,0.00,VWS V15.00,2017-04-29 17:33:00,
2017-04-29 10:38:00,49.1,44.5,29.85,North,0,0.0,0.0,84,0.00,,SKC,0.00,VWS V15.00,2017-04-29 17:38:00,
2017-04-29 10:43:00,49.3,44.3,29.85,North,0,0.0,0.0,83,0.00,,SKC,0.00,VWS V15.00,2017-04-29 17:43:00,
2017-04-29 10:44:00,49.3,44.3,29.85,North,0,0.0,0.0,83,0.00,,SKC,0.00,VWS V15.00,2017-04-29 17:44:00,
2017-04-29 10:49:00,49.3,44.3,29.85,North,0,0.0,0.0,83,0.00,,SKC,0.00,VWS V15.00,2017-04-29 17:49:00,
2017-04-29 10:54:00,49.5,44.2,29.85,North,0,0.0,0.0,82,0.00,,SKC,0.00,VWS V15.00,2017-04-29 17:54:00,
2017-04-29 10:59:00,49.6,44.4,29.85,North,0,0.0,0.0,82,0.00,,SKC,0.00,VWS V15.00,2017-04-29 17:59:00,
2017-04-29 11:04:00,49.6,44.4,29.82,North,0,0.0,0.0,82,0.00,,SKC,0.00,VWS V15.00,2017-04-29 18:04:00,
2017-04-29 11:09:00,49.5,43.9,29.82,North,0,0.0,0.0,81,0.00,,SKC,0.00,VWS V15.00,2017-04-29 18:09:00,
2017-04-29 11:14:00,49.6,44.1,29.82,North,0,0.0,0.0,81,0.00,,SKC,0.00,VWS V15.00,2017-04-29 18:14:00,
2017-04-29 11:19:00,49.6,43.7,29.82,North,0,0.0,0.0,80,0.00,,SKC,0.00,VWS V15.00,2017-04-29 18:19:00,
2017-04-29 11:24:00,49.8,43.9,29.82,North,0,0.0,0.0,80,0.00,,SKC,0.00,VWS V15.00,2017-04-29 18:24:00,
2017-04-29 11:29:00,50.0,44.1,29.82,North,0,0.0,0.0,80,0.00,,SKC,0.00,VWS V15.00,2017-04-29 18:29:00,
2017-04-29 11:34:00,50.0,44.1,29.82,North,0,0.0,0.0,80,0.00,,SKC,0.00,VWS V15.00,2017-04-29 18:34:00,
2017-04-29 11:39:00,50.0,43.8,29.82,North,0,0.0,0.0,79,0.00,,SKC,0.00,VWS V15.00,2017-04-29 18:39:00,
2017-04-29 11:44:00,50.0,43.4,29.82,North,0,0.0,0.0,78,0.00,,SKC,0.00,VWS V15.00,2017-04-29 18:44:00,
2017-04-29 11:49:00,49.8,43.2,29.82,North,0,0.0,0.0,78,0.00,,SKC,0.00,VWS V15.00,2017-04-29 18:49:00,
2017-04-29 11:54:00,50.0,43.4,29.82,North,0,0.0,0.0,78,0.00,,SKC,0.00,VWS V15.00,2017-04-29 18:54:00,
2017-04-29 11:59:00,50.2,43.6,29.82,North,0,0.0,0.0,78,0.00,,SKC,0.00,VWS V15.00,2017-04-29 18:59:00,
2017-04-29 12:04:00,50.0,43.4,29.82,North,0,0.0,0.0,78,0.00,,SKC,0.00,VWS V15.00,2017-04-29 19:04:00,
2017-04-29 12:09:00,50.2,43.6,29.82,North,0,0.0,0.0,78,0.00,,SKC,0.00,VWS V15.00,2017-04-29 19:09:00,
2017-04-29 12:14:00,50.4,43.8,29.82,North,0,0.0,0.0,78,0.00,,SKC,0.00,VWS V15.00,2017-04-29 19:14:00,
2017-04-29 12:19:00,50.5,44.0,29.79,North,0,0.0,0.0,78,0.00,,SKC,0.00,VWS V15.00,2017-04-29 19:19:00,
2017-04-29 12:24:00,50.9,44.3,29.79,North,0,0.0,0.0,78,0.00,,SKC,0.00,VWS V15.00,2017-04-29 19:24:00,
2017-04-29 12:29:00,50.9,44.3,29.79,North,0,0.0,0.0,78,0.00,,SKC,0.00,VWS V15.00,2017-04-29 19:29:00,
2017-04-29 12:34:00,51.1,44.8,29.79,North,0,0.0,0.0,79,0.00,,SKC,0.00,VWS V15.00,2017-04-29 19:34:00,
2017-04-29 12:39:00,51.1,44.5,29.79,North,0,0.0,0.0,78,0.00,,SKC,0.00,VWS V15.00,2017-04-29 19:39:00,
2017-04-29 12:44:00,51.1,44.5,29.79,North,0,0.0,0.0,78,0.00,,SKC,0.00,VWS V15.00,2017-04-29 19:44:00,
2017-04-29 12:49:00,51.3,44.6,29.79,North,0,0.0,0.0,78,0.00,,SKC,0.00,VWS V15.00,2017-04-29 19:49:00,
2017-04-29 12:54:00,51.1,44.1,29.79,North,0,0.0,0.0,77,0.00,,SKC,0.00,VWS V15.00,2017-04-29 19:54:00,
2017-04-29 13:00:00,51.1,44.1,29.79,North,0,0.0,0.0,77,0.00,,SKC,0.00,VWS V15.00,2017-04-29 20:00:00,
2017-04-29 13:05:00,51.1,44.1,29.79,North,0,0.0,0.0,77,0.00,,SKC,0.00,VWS V15.00,2017-04-29 20:05:00,
2017-04-29 13:10:00,51.3,44.3,29.79,North,0,0.0,0.0,77,0.00,,SKC,0.00,VWS V15.00,2017-04-29 20:10:00,
2017-04-29 13:15:00,51.3,44.0,29.76,North,0,0.0,0.0,76,0.00,,SKC,0.00,VWS V15.00,2017-04-29 20:15:00,
2017-04-29 13:20:00,51.1,43.8,29.76,North,0,0.0,0.0,76,0.00,,SKC,0.00,VWS V15.00,2017-04-29 20:20:00,
2017-04-29 13:25:00,51.1,43.8,29.76,North,0,0.0,0.0,76,0.00,,SKC,0.00,VWS V15.00,2017-04-29 20:25:00,
2017-04-29 13:35:00,51.3,44.0,29.76,North,0,0.0,0.0,76,0.00,,SKC,0.00,VWS V15.00,2017-04-29 20:35:00,
2017-04-29 13:40:00,51.6,44.3,29.76,North,0,0.0,0.0,76,0.00,,SKC,0.00,VWS V15.00,2017-04-29 20:40:00,
2017-04-29 13:45:00,51.4,43.8,29.76,North,0,0.0,0.0,75,0.00,,SKC,0.00,VWS V15.00,2017-04-29 20:45:00,
2017-04-29 13:50:00,51.4,43.8,29.76,North,0,0.0,0.0,75,0.00,,SKC,0.00,VWS V15.00,2017-04-29 20:50:00,
2017-04-29 13:55:00,51.3,43.6,29.76,North,0,0.0,0.0,75,0.00,,SKC,0.00,VWS V15.00,2017-04-29 20:55:00,
2017-04-29 14:00:00,51.3,43.6,29.76,North,0,0.0,0.0,75,0.00,,SKC,1.58,VWS V15.00,2017-04-29 21:00:00,
2017-04-29 14:05:00,51.3,43.6,29.76,North,0,0.0,0.0,75,0.00,,SKC,0.00,VWS V15.00,2017-04-29 21:05:00,
2017-04-29 14:10:00,51.3,43.6,29.76,North,0,0.0,0.0,75,0.00,,SKC,0.00,VWS V15.00,2017-04-29 21:10:00,
2017-04-29 14:15:00,51.1,43.4,29.76,North,0,0.0,0.0,75,0.00,,SKC,0.00,VWS V15.00,2017-04-29 21:15:00,
2017-04-29 14:20:00,51.1,43.4,29.76,North,0,0.0,0.0,75,0.00,,SKC,0.00,VWS V15.00,2017-04-29 21:20:00,
2017-04-29 14:25:00,51.1,43.4,29.76,North,0,0.0,0.0,75,0.00,,SKC,0.00,VWS V15.00,2017-04-29 21:25:00,
2017-04-29 14:30:00,51.1,43.4,29.76,North,0,0.0,0.0,75,0.00,,SKC,0.00,VWS V15.00,2017-04-29 21:30:00,
2017-04-29 14:35:00,50.9,42.9,29.76,North,0,0.0,0.0,74,0.00,,SKC,0.00,VWS V15.00,2017-04-29 21:35:00,
2017-04-29 14:40:00,50.9,42.9,29.76,North,0,0.0,0.0,74,0.00,,SKC,0.00,VWS V15.00,2017-04-29 21:40:00,
2017-04-29 14:42:00,50.9,42.9,29.76,North,0,0.0,0.0,74,0.00,,SKC,0.00,VWS V15.00,2017-04-29 21:42:00,
2017-04-29 14:47:00,50.9,42.9,29.76,North,0,0.0,0.0,74,0.00,,SKC,0.00,VWS V15.00,2017-04-29 21:47:00,
2017-04-29 14:52:00,50.9,43.3,29.76,North,0,0.0,0.0,75,0.00,,SKC,0.00,VWS V15.00,2017-04-29 21:52:00,
2017-04-29 14:57:00,50.9,43.3,29.76,North,0,0.0,0.0,75,0.00,,SKC,0.00,VWS V15.00,2017-04-29 21:57:00,
2017-04-29 15:02:00,50.9,43.3,29.76,North,0,0.0,0.0,75,0.00,,SKC,0.00,VWS V15.00,2017-04-29 22:02:00,
2017-04-29 15:07:00,50.9,43.3,29.76,North,0,0.0,0.0,75,0.00,,SKC,0.00,VWS V15.00,2017-04-29 22:07:00,
2017-04-29 15:12:00,50.9,43.3,29.76,North,0,0.0,0.0,75,0.00,,SKC,0.00,VWS V15.00,2017-04-29 22:12:00,
2017-04-29 15:17:00,50.9,43.3,29.76,North,0,0.0,0.0,75,0.00,,SKC,0.00,VWS V15.00,2017-04-29 22:17:00,
2017-04-29 15:22:00,51.1,43.4,29.76,North,0,0.0,0.0,75,0.00,,SKC,0.00,VWS V15.00,2017-04-29 22:22:00,
2017-04-29 15:27:00,51.1,43.4,29.76,North,0,0.0,0.0,75,0.00,,SKC,0.00,VWS V15.00,2017-04-29 22:27:00,
2017-04-29 15:30:00,51.1,43.4,29.74,North,0,0.0,0.0,75,0.00,,SKC,0.00,VWS V15.00,2017-04-29 22:30:00,
2017-04-29 15:35:00,51.3,43.6,29.74,North,0,0.0,0.0,75,0.00,,SKC,0.00,VWS V15.00,2017-04-29 22:35:00,
2017-04-29 15:40:00,51.3,43.6,29.74,North,0,0.0,0.0,75,0.00,,SKC,0.00,VWS V15.00,2017-04-29 22:40:00,
2017-04-29 15:45:00,51.4,43.8,29.74,North,0,0.0,0.0,75,0.00,,SKC,0.00,VWS V15.00,2017-04-29 22:45:00,
2017-04-29 15:50:00,51.6,44.0,29.74,North,0,0.0,0.0,75,0.00,,SKC,0.00,VWS V15.00,2017-04-29 22:50:00,
2017-04-29 15:55:00,51.8,44.1,29.74,North,0,0.0,0.0,75,0.00,,SKC,0.00,VWS V15.00,2017-04-29 22:55:00,
2017-04-29 16:00:00,52.0,44.3,29.74,North,0,0.0,0.0,75,0.00,,SKC,0.00,VWS V15.00,2017-04-29 23:00:00,
2017-04-29 16:05:00,52.0,44.3,29.74,North,0,0.0,0.0,75,0.00,,SKC,0.00,VWS V15.00,2017-04-29 23:05:00,
2017-04-29 16:10:00,52.2,44.1,29.74,North,0,0.0,0.0,74,0.00,,SKC,0.00,VWS V15.00,2017-04-29 23:10:00,
2017-04-29 16:15:00,52.5,44.5,29.74,North,0,0.0,0.0,74,0.00,,SKC,0.00,VWS V15.00,2017-04-29 23:15:00,
2017-04-29 16:20:00,52.7,44.7,29.74,North,0,0.0,0.0,74,0.00,,SKC,0.00,VWS V15.00,2017-04-29 23:20:00,
2017-04-29 16:25:00,52.7,44.3,29.74,North,0,0.0,0.0,73,0.00,,SKC,0.00,VWS V15.00,2017-04-29 23:25:00,
2017-04-29 16:30:00,52.9,44.5,29.74,North,0,0.0,0.0,73,0.00,,SKC,0.00,VWS V15.00,2017-04-29 23:30:00,
2017-04-29 16:35:00,52.9,44.8,29.74,North,0,0.0,0.0,74,0.00,,SKC,0.00,VWS V15.00,2017-04-29 23:35:00,
2017-04-29 16:41:00,53.1,44.7,29.74,North,0,0.0,0.0,73,0.00,,SKC,0.00,VWS V15.00,2017-04-29 23:41:00,
2017-04-29 16:46:00,53.1,44.7,29.74,North,0,0.0,0.0,73,0.00,,SKC,0.00,VWS V15.00,2017-04-29 23:46:00,
2017-04-29 16:51:00,53.1,44.7,29.74,North,0,0.0,0.0,73,0.00,,SKC,0.00,VWS V15.00,2017-04-29 23:51:00,
2017-04-29 16:56:00,53.1,44.7,29.74,North,0,0.0,0.0,73,0.00,,SKC,0.00,VWS V15.00,2017-04-29 23:56:00,
2017-04-29 17:01:00,53.1,44.3,29.74,North,0,0.0,0.0,72,0.00,,SKC,0.00,VWS V15.00,2017-04-30 00:01:00,
2017-04-29 17:06:00,53.1,44.7,29.74,North,0,0.0,0.0,73,0.00,,SKC,0.00,VWS V15.00,2017-04-30 00:06:00,
2017-04-29 17:11:00,53.2,44.1,29.74,North,0,0.0,0.0,71,0.00,,SKC,0.00,VWS V15.00,2017-04-30 00:11:00,
2017-04-29 17:16:00,53.2,43.7,29.71,North,0,0.0,0.0,70,0.00,,SKC,0.00,VWS V15.00,2017-04-30 00:16:00,
2017-04-29 17:21:00,53.2,43.3,29.71,North,0,0.0,0.0,69,0.00,,SKC,0.00,VWS V15.00,2017-04-30 00:21:00,
2017-04-29 17:26:00,53.2,43.3,29.71,North,0,0.0,0.0,69,0.00,,SKC,0.00,VWS V15.00,2017-04-30 00:26:00,
2017-04-29 17:31:00,53.2,43.3,29.71,North,0,0.0,0.0,69,0.00,,SKC,0.00,VWS V15.00,2017-04-30 00:31:00,
2017-04-29 17:36:00,53.1,43.5,29.71,North,0,0.0,0.0,70,0.00,,SKC,0.00,VWS V15.00,2017-04-30 00:36:00,
2017-04-29 17:41:00,52.9,43.4,29.71,North,0,0.0,0.0,70,0.00,,SKC,0.00,VWS V15.00,2017-04-30 00:41:00,
2017-04-29 17:46:00,52.7,43.2,29.71,North,0,0.0,0.0,70,0.00,,SKC,0.00,VWS V15.00,2017-04-30 00:46:00,
2017-04-29 17:51:00,52.7,43.2,29.71,North,0,0.0,0.0,70,0.00,,SKC,0.00,VWS V15.00,2017-04-30 00:51:00,
2017-04-29 17:56:00,52.5,42.3,29.71,North,0,0.0,0.0,68,0.00,,SKC,0.00,VWS V15.00,2017-04-30 00:56:00,
2017-04-29 18:01:00,52.3,42.1,29.71,North,0,0.0,0.0,68,0.00,,SKC,0.00,VWS V15.00,2017-04-30 01:01:00,
2017-04-29 18:06:00,52.0,41.8,29.71,North,0,0.0,0.0,68,0.00,,SKC,0.00,VWS V15.00,2017-04-30 01:06:00,
2017-04-29 18:11:00,51.8,42.0,29.71,North,0,0.0,0.0,69,0.00,,SKC,0.00,VWS V15.00,2017-04-30 01:11:00,
2017-04-29 18:16:00,51.6,42.2,29.71,North,0,0.0,0.0,70,0.00,,SKC,0.00,VWS V15.00,2017-04-30 01:16:00,
2017-04-29 18:21:00,51.6,42.2,29.71,North,0,0.0,0.0,70,0.00,,SKC,0.00,VWS V15.00,2017-04-30 01:21:00,
2017-04-29 18:26:00,51.4,42.0,29.71,North,0,0.0,0.0,70,0.00,,SKC,0.00,VWS V15.00,2017-04-30 01:26:00,
2017-04-29 18:31:00,51.4,42.4,29.71,North,0,0.0,0.0,71,0.00,,SKC,0.00,VWS V15.00,2017-04-30 01:31:00,
2017-04-29 18:36:00,51.3,42.2,29.71,North,0,0.0,0.0,71,0.00,,SKC,0.00,VWS V15.00,2017-04-30 01:36:00,
2017-04-29 18:41:00,51.3,42.2,29.71,North,0,0.0,0.0,71,0.00,,SKC,0.00,VWS V15.00,2017-04-30 01:41:00,
2017-04-29 18:46:00,50.9,41.8,29.71,North,0,0.0,0.0,71,0.00,,SKC,0.00,VWS V15.00,2017-04-30 01:46:00,
2017-04-29 18:51:00,50.7,41.7,29.71,North,0,0.0,0.0,71,0.00,,SKC,0.00,VWS V15.00,2017-04-30 01:51:00,
2017-04-29 18:56:00,50.5,41.5,29.71,North,0,0.0,0.0,71,0.00,,SKC,0.00,VWS V15.00,2017-04-30 01:56:00,
2017-04-29 19:01:00,50.5,41.9,29.71,North,0,0.0,0.0,72,0.00,,SKC,0.00,VWS V15.00,2017-04-30 02:01:00,
2017-04-29 19:06:00,50.0,41.7,29.71,North,0,0.0,0.0,73,0.00,,SKC,0.00,VWS V15.00,2017-04-30 02:06:00,
2017-04-29 19:11:00,50.0,41.7,29.71,North,0,0.0,0.0,73,0.00,,SKC,0.00,VWS V15.00,2017-04-30 02:11:00,
2017-04-29 19:16:00,49.8,41.9,29.71,North,0,0.0,0.0,74,0.00,,SKC,0.00,VWS V15.00,2017-04-30 02:16:00,
2017-04-29 19:21:00,49.6,41.7,29.71,North,0,0.0,0.0,74,0.00,,SKC,0.00,VWS V15.00,2017-04-30 02:21:00,
2017-04-29 19:27:00,49.5,41.9,29.71,North,0,0.0,0.0,75,0.00,,SKC,0.00,VWS V15.00,2017-04-30 02:27:00,
2017-04-29 19:32:00,49.6,42.0,29.68,North,0,0.0,0.0,75,0.00,,SKC,0.00,VWS V15.00,2017-04-30 02:32:00,
2017-04-29 19:37:00,49.5,41.9,29.68,North,0,0.0,0.0,75,0.00,,SKC,0.00,VWS V15.00,2017-04-30 02:37:00,
2017-04-29 19:42:00,49.5,41.9,29.68,North,0,0.0,0.0,75,0.00,,SKC,0.00,VWS V15.00,2017-04-30 02:42:00,
2017-04-29 19:47:00,49.5,42.2,29.68,North,0,0.0,0.0,76,0.00,,SKC,0.00,VWS V15.00,2017-04-30 02:47:00,
2017-04-29 19:52:00,49.1,41.9,29.68,North,0,0.0,0.0,76,0.00,,SKC,0.00,VWS V15.00,2017-04-30 02:52:00,
2017-04-29 19:57:00,49.1,41.9,29.68,North,0,0.0,0.0,76,0.00,,SKC,0.00,VWS V15.00,2017-04-30 02:57:00,
2017-04-29 20:02:00,48.9,42.0,29.68,North,0,0.0,0.0,77,0.00,,SKC,0.00,VWS V15.00,2017-04-30 03:02:00,
2017-04-29 20:07:00,48.7,41.9,29.68,North,0,0.0,0.0,77,0.00,,SKC,0.00,VWS V15.00,2017-04-30 03:07:00,
2017-04-29 20:12:00,48.7,42.2,29.68,North,0,0.0,0.0,78,0.00,,SKC,0.00,VWS V15.00,2017-04-30 03:12:00,
2017-04-29 20:17:00,48.6,42.0,29.68,North,0,0.0,0.0,78,0.00,,SKC,0.00,VWS V15.00,2017-04-30 03:17:00,
2017-04-29 20:22:00,48.6,42.3,29.68,North,0,0.0,0.0,79,0.00,,SKC,0.00,VWS V15.00,2017-04-30 03:22:00,
2017-04-29 20:27:00,48.4,42.5,29.68,North,0,0.0,0.0,80,0.00,,SKC,0.00,VWS V15.00,2017-04-30 03:27:00,
2017-04-29 20:32:00,48.4,42.5,29.68,North,0,0.0,0.0,80,0.00,,SKC,0.00,VWS V15.00,2017-04-30 03:32:00,
2017-04-29 20:37:00,48.2,42.3,29.68,North,0,0.0,0.0,80,0.00,,SKC,0.00,VWS V15.00,2017-04-30 03:37:00,
2017-04-29 20:42:00,48.2,42.7,29.68,North,0,0.0,0.0,81,0.00,,SKC,0.00,VWS V15.00,2017-04-30 03:42:00,
2017-04-29 20:49:00,48.2,42.7,29.68,North,0,0.0,0.0,81,0.00,,SKC,0.00,VWS V15.00,2017-04-30 03:49:00,
2017-04-29 20:54:00,48.0,42.8,29.68,North,0,0.0,0.0,82,0.00,,SKC,0.00,VWS V15.00,2017-04-30 03:54:00,
2017-04-29 20:59:00,48.0,42.8,29.68,North,0,0.0,0.0,82,0.00,,SKC,0.00,VWS V15.00,2017-04-30 03:59:00,
2017-04-29 21:04:00,47.8,42.6,29.68,North,0,0.0,0.0,82,0.00,,SKC,0.00,VWS V15.00,2017-04-30 04:04:00,
2017-04-29 21:09:00,47.8,42.6,29.68,North,0,0.0,0.0,82,0.00,,SKC,0.00,VWS V15.00,2017-04-30 04:09:00,
2017-04-29 21:14:00,47.8,42.6,29.68,North,0,0.0,0.0,82,0.00,,SKC,0.00,VWS V15.00,2017-04-30 04:14:00,
2017-04-29 21:19:00,47.8,42.6,29.68,North,0,0.0,0.0,82,0.00,,SKC,0.00,VWS V15.00,2017-04-30 04:19:00,
2017-04-29 21:24:00,47.7,42.8,29.68,North,0,0.0,0.0,83,0.00,,SKC,0.00,VWS V15.00,2017-04-30 04:24:00,
2017-04-29 21:29:00,47.7,42.8,29.68,North,0,0.0,0.0,83,0.00,,SKC,0.00,VWS V15.00,2017-04-30 04:29:00,
2017-04-29 21:34:00,47.5,42.6,29.68,North,0,0.0,0.0,83,0.00,,SKC,0.00,VWS V15.00,2017-04-30 04:34:00,
2017-04-29 21:39:00,47.7,42.8,29.68,North,0,0.0,0.0,83,0.00,,SKC,0.00,VWS V15.00,2017-04-30 04:39:00,
2017-04-29 21:44:00,47.7,42.8,29.68,North,0,0.0,0.0,83,0.00,,SKC,0.00,VWS V15.00,2017-04-30 04:44:00,
2017-04-29 21:49:00,47.7,42.8,29.68,North,0,0.0,0.0,83,0.00,,SKC,0.00,VWS V15.00,2017-04-30 04:49:00,
2017-04-29 21:54:00,47.7,43.1,29.68,North,0,0.0,0.0,84,0.00,,SKC,0.00,VWS V15.00,2017-04-30 04:54:00,
2017-04-29 21:59:00,47.7,43.1,29.68,North,0,0.0,0.0,84,0.00,,SKC,0.00,VWS V15.00,2017-04-30 04:59:00,
2017-04-29 22:04:00,47.7,43.1,29.68,North,0,0.0,0.0,84,0.00,,SKC,0.00,VWS V15.00,2017-04-30 05:04:00,
2017-04-29 22:09:00,47.7,43.1,29.68,North,0,0.0,0.0,84,0.00,,SKC,0.00,VWS V15.00,2017-04-30 05:09:00,
2017-04-29 22:14:00,47.7,43.1,29.68,North,0,0.0,0.0,84,0.00,,SKC,0.00,VWS V15.00,2017-04-30 05:14:00,
2017-04-29 22:19:00,47.7,43.1,29.65,North,0,0.0,0.0,84,0.00,,SKC,0.00,VWS V15.00,2017-04-30 05:19:00,
2017-04-29 22:24:00,47.5,42.9,29.65,North,0,0.0,0.0,84,0.00,,SKC,0.00,VWS V15.00,2017-04-30 05:24:00,
2017-04-29 22:29:00,47.5,42.9,29.65,North,0,0.0,0.0,84,0.00,,SKC,0.00,VWS V15.00,2017-04-30 05:29:00,
2017-04-29 22:34:00,47.5,43.2,29.68,North,0,0.0,0.0,85,0.00,,SKC,0.00,VWS V15.00,2017-04-30 05:34:00,
2017-04-29 22:39:00,47.5,43.2,29.68,North,0,0.0,0.0,85,0.00,,SKC,0.00,VWS V15.00,2017-04-30 05:39:00,
2017-04-29 22:44:00,47.5,43.2,29.68,North,0,0.0,0.0,85,0.00,,SKC,0.00,VWS V15.00,2017-04-30 05:44:00,
2017-04-29 22:49:00,47.5,43.2,29.68,North,0,0.0,0.0,85,0.00,,SKC,0.00,VWS V15.00,2017-04-30 05:49:00,
2017-04-29 22:54:00,47.5,43.2,29.68,North,0,0.0,0.0,85,0.00,,SKC,0.00,VWS V15.00,2017-04-30 05:54:00,
2017-04-29 22:59:00,47.5,43.5,29.68,North,0,0.0,0.0,86,0.00,,SKC,0.00,VWS V15.00,2017-04-30 05:59:00,
2017-04-29 23:04:00,47.5,43.5,29.68,North,0,0.0,0.0,86,0.00,,SKC,0.00,VWS V15.00,2017-04-30 06:04:00,
2017-04-29 23:10:00,47.3,43.3,29.68,North,0,0.0,0.0,86,0.00,,SKC,0.00,VWS V15.00,2017-04-30 06:10:00,
2017-04-29 23:15:00,47.3,43.3,29.68,North,0,0.0,0.0,86,0.00,,SKC,0.00,VWS V15.00,2017-04-30 06:15:00,
2017-04-29 23:20:00,47.3,43.3,29.68,North,0,0.0,0.0,86,0.00,,SKC,0.00,VWS V15.00,2017-04-30 06:20:00,
2017-04-29 23:25:00,47.3,43.3,29.68,North,0,0.0,0.0,86,0.00,,SKC,0.00,VWS V15.00,2017-04-30 06:25:00,
2017-04-29 23:30:00,47.3,43.3,29.68,North,0,0.0,0.0,86,0.00,,SKC,0.00,VWS V15.00,2017-04-30 06:30:00,
2017-04-29 23:35:00,47.3,43.3,29.68,North,0,0.0,0.0,86,0.00,,SKC,0.00,VWS V15.00,2017-04-30 06:35:00,
2017-04-29 23:40:00,47.3,43.3,29.68,North,0,0.0,0.0,86,0.00,,SKC,0.00,VWS V15.00,2017-04-30 06:40:00,
2017-04-29 23:45:00,47.3,43.3,29.65,North,0,0.0,0.0,86,0.00,,SKC,0.00,VWS V15.00,2017-04-30 06:45:00,